W5MAI Weather Reports


Display with metric or nautical units.
time (UTC)temp
F
wind
direction
speed
MPH
gust
MPH
rain 1hr
in
rain 24hr
in
rain mn
in
humidity
%
barometer
mb
20240621022409 74 153 0.0 0.0 0.13 0.80 0.52 94 1020.7
20240621021341 74 57 0.0 0.0 0.03 0.70 0.42 94 1020.5
20240621020403 74 57 0.0 0.0 0.00 0.67 0.39 93 1020.4
20240621015330 74 57 0.0 0.0 0.00 0.92 0.39 93 1020.5
20240621014400 74 57 0.0 0.0 0.00 0.92 0.39 93 1020.4
20240621013323 75 57 0.0 0.0 0.00 0.92 0.39 93 1020.3
20240621012323 75 57 0.0 0.0 0.00 0.92 0.39 93 1020.2
20240621011347 75 57 0.0 0.0 0.00 0.92 0.39 93 1020.2
20240621010323 75 57 0.0 0.0 0.00 0.92 0.39 93 1020.0
20240621005347 75 57 0.0 5.0 0.00 1.14 0.39 92 1020.2
20240621004421 75 76 3.0 8.0 0.01 1.14 0.39 92 1020.1
20240621003338 76 72 4.0 9.0 0.01 1.14 0.39 92 1020.2
20240621002346 76 9 2.0 11.0 0.01 1.14 0.39 92 1020.3
20240621001421 77 36 4.0 11.0 0.01 1.14 0.39 92 1020.0
20240621000349 77 113 1.0 2.0 0.01 1.14 0.39 93 1019.8
20240620235418 77 84 0.0 2.0 0.01 1.23 0.39 93 1019.5
20240620234339 77 84 0.0 6.0 0.00 1.22 0.38 93 1019.7
20240620233403 76 28 2.0 5.0 0.00 1.22 0.38 92 1019.7
20240620232323 76 77 1.0 8.0 0.12 1.22 0.38 92 1019.6
20240620231350 77 62 0.0 4.0 0.13 1.22 0.38 92 1019.6
20240620230327 77 51 0.0 5.0 0.15 1.22 0.38 92 1019.4
20240620224359 77 76 2.0 9.0 0.22 1.29 0.38 91 1019.3
20240620223421 77 98 3.0 10.0 0.22 1.29 0.38 90 1019.4
20240620222349 78 145 3.0 11.0 0.10 1.17 0.26 89 1019.4
20240620221412 79 128 7.0 18.0 0.09 1.16 0.25 85 1019.6
20240620220329 84 172 10.0 18.0 0.06 1.13 0.22 77 1019.4
20240620215414 84 147 4.0 16.0 0.00 1.15 0.16 76 1019.1
20240620214342 84 81 8.0 18.0 0.00 1.15 0.16 75 1019.1
20240620213411 85 82 6.0 14.0 0.00 1.15 0.16 75 1019.1
20240620211344 84 96 8.0 13.0 0.00 1.15 0.16 78 1019.2
20240620210409 84 41 6.0 16.0 0.00 1.15 0.16 78 1019.4
20240620205334 84 21 6.0 17.0 0.00 1.19 0.16 77 1019.5
20240620204408 83 96 11.0 20.0 0.00 1.19 0.16 78 1019.5
20240620203326 83 87 9.0 19.0 0.03 1.19 0.16 79 1019.7
20240620202410 83 87 7.0 18.0 0.03 1.19 0.16 82 1019.9
20240620201343 82 89 6.0 19.0 0.03 1.19 0.16 84 1019.9
20240620200330 81 38 5.0 14.0 0.03 1.19 0.16 89 1019.9
20240620195358 79 42 3.0 13.0 0.03 1.19 0.16 89 1020.1
20240620194329 80 125 6.0 20.0 0.03 1.19 0.16 86 1020.4
20240620193410 84 65 9.0 20.0 0.00 1.16 0.13 78 1020.3
20240620192329 85 84 7.0 18.0 0.00 1.16 0.13 77 1020.0
20240620191355 84 24 6.0 18.0 0.00 1.16 0.13 79 1020.0
20240620190328 83 65 6.0 19.0 0.00 1.16 0.13 80 1019.9
20240620183329 82 75 7.0 16.0 0.03 1.16 0.13 83 1020.4
20240620180339 80 41 3.0 10.0 0.03 1.16 0.13 90 1020.8
20240620175407 80 63 4.0 14.0 0.02 1.15 0.12 86 1020.9
20240620174339 81 322 4.0 12.0 0.00 1.13 0.10 87 1020.8
20240620173353 81 74 4.0 13.0 0.00 1.13 0.10 84 1021.0
20240620172422 81 18 2.0 12.0 0.00 1.13 0.10 85 1021.0
20240620171330 81 58 6.0 12.0 0.00 1.13 0.10 83 1020.9
20240620170359 81 83 5.0 13.0 0.00 1.13 0.10 85 1020.9
20240620165329 80 32 8.0 13.0 0.00 1.13 0.10 86 1020.9
20240620164358 79 55 2.0 8.0 0.00 1.13 0.10 90 1020.9
20240620163326 78 71 3.0 8.0 0.00 1.13 0.10 91 1020.9
20240620160344 77 84 4.0 10.0 0.00 1.13 0.10 91 1020.8
20240620155409 77 73 2.0 8.0 0.01 1.13 0.10 92 1020.8
20240620154335 77 84 5.0 9.0 0.01 1.13 0.10 93 1020.8
20240620153350 76 69 5.0 9.0 0.01 1.13 0.10 94 1020.8
20240620152421 76 37 3.0 11.0 0.01 1.13 0.10 94 1020.8
20240620151341 76 82 3.0 9.0 0.01 1.13 0.10 95 1020.8
20240620150417 76 59 1.0 6.0 0.01 1.13 0.10 94 1020.7
20240620145340 76 63 2.0 8.0 0.00 1.12 0.09 94 1020.7
20240620144400 76 84 2.0 7.0 0.00 1.12 0.09 94 1020.6
20240620143339 75 67 5.0 11.0 0.00 1.12 0.09 94 1020.6
20240620142349 75 54 3.0 6.0 0.00 1.12 0.09 95 1020.6
20240620141420 75 360 3.0 9.0 0.00 1.12 0.09 95 1020.4
20240620140340 75 35 3.0 10.0 0.00 1.12 0.09 95 1020.4
20240620135358 75 55 2.0 9.0 0.00 1.12 0.09 95 1020.2
20240620134329 75 32 2.0 6.0 0.00 1.12 0.09 95 1020.2
20240620133349 75 40 2.0 8.0 0.00 1.12 0.09 95 1020.0
20240620132323 75 65 2.0 9.0 0.00 1.12 0.09 95 1019.8
20240620131351 75 44 4.0 13.0 0.00 1.12 0.09 95 1019.6
20240620130324 75 56 3.0 13.0 0.00 1.12 0.09 95 1019.6
20240620125347 75 63 2.0 10.0 0.00 1.12 0.09 96 1019.4
20240620124335 75 54 1.0 6.0 0.00 1.12 0.09 96 1019.3
20240620123410 75 71 1.0 7.0 0.00 1.12 0.09 96 1019.3
20240620122323 75 85 1.0 8.0 0.00 1.12 0.09 96 1019.1
20240620120352 74 46 0.0 2.0 0.00 1.12 0.09 96 1018.8
20240620115411 74 9 0.0 5.0 0.00 1.12 0.09 96 1018.8
20240620114341 74 100 1.0 3.0 0.00 1.12 0.09 96 1018.7
20240620113406 74 30 1.0 8.0 0.00 1.12 0.09 96 1018.6
20240620112336 74 51 2.0 5.0 0.00 1.12 0.09 96 1018.6
20240620111359 74 63 1.0 4.0 0.00 1.12 0.09 96 1018.4
20240620110330 74 15 1.0 3.0 0.00 1.12 0.09 96 1018.3
20240620105357 74 74 0.0 3.0 0.00 1.12 0.09 96 1018.2
20240620104323 74 32 1.0 4.0 0.00 1.12 0.09 96 1018.2
20240620103334 74 74 1.0 3.0 0.00 1.12 0.09 96 1018.2
20240620102359 74 85 1.0 3.0 0.00 1.12 0.09 96 1018.2
20240620101332 74 69 1.0 3.0 0.00 1.12 0.09 96 1018.3
20240620100401 74 24 1.0 3.0 0.00 1.12 0.09 96 1018.2
20240620095331 74 48 0.0 2.0 0.00 1.12 0.09 96 1018.2
20240620094401 74 29 1.0 4.0 0.00 1.12 0.09 96 1018.0
20240620093329 74 57 1.0 4.0 0.00 1.12 0.09 96 1018.0
20240620092359 74 5 1.0 4.0 0.00 1.12 0.09 96 1018.0
20240620091335 74 51 0.0 4.0 0.00 1.12 0.09 96 1018.0
20240620090358 74 41 2.0 6.0 0.00 1.12 0.09 96 1018.2
20240620085330 73 27 1.0 5.0 0.00 1.12 0.09 96 1018.2
20240620084404 73 13 1.0 4.0 0.00 1.12 0.09 96 1018.2
20240620082328 73 71 1.0 5.0 0.00 1.12 0.09 96 1018.3
20240620080341 73 34 0.0 4.0 0.00 1.12 0.09 96 1018.3
20240620075408 73 74 1.0 5.0 0.00 1.12 0.09 96 1018.3
20240620074328 73 360 1.0 5.0 0.00 1.12 0.09 96 1018.4
20240620073414 73 70 1.0 2.0 0.00 1.12 0.09 96 1018.3
20240620072345 73 11 1.0 6.0 0.00 1.12 0.09 96 1018.4
20240620071413 73 13 1.0 3.0 0.00 1.12 0.09 96 1018.4
20240620070331 73 54 2.0 6.0 0.01 1.12 0.09 96 1018.5
20240620065325 73 69 1.0 6.0 0.02 1.12 0.09 96 1018.6
20240620064343 73 32 1.0 4.0 0.05 1.12 0.09 96 1018.7
20240620063332 73 19 0.0 2.0 0.07 1.12 0.09 95 1018.6
20240620062341 73 15 1.0 7.0 0.07 1.12 0.09 95 1018.8
20240620061330 73 9 1.0 3.0 0.07 1.11 0.08 95 1018.7
20240620060339 73 63 2.0 3.0 0.08 1.11 0.08 95 1019.1
20240620055327 73 32 1.0 3.0 0.06 1.09 0.06 95 1018.9
20240620054345 73 349 2.0 4.0 0.05 1.07 0.04 96 1019.1
20240620053335 72 69 1.0 4.0 0.03 1.05 0.02 95 1019.1
20240620052324 72 5 1.0 5.0 0.04 1.05 0.02 95 1019.3
20240620051402 72 42 1.0 4.0 0.04 1.04 0.01 95 1019.6
20240620050342 72 45 1.0 3.0 0.04 1.03 0.00 95 1019.7
20240620045342 72 62 1.0 3.0 0.05 1.03 1.03 95 1019.6
20240620044413 72 63 1.0 5.0 0.06 1.02 1.02 95 1019.5
20240620043328 72 36 1.0 4.0 0.08 1.02 1.02 95 1019.5
20240620042357 72 16 3.0 10.0 0.09 1.01 1.01 95 1019.5
20240620041324 72 360 2.0 6.0 0.11 1.00 1.00 95 1019.5
20240620034349 72 69 1.0 11.0 0.16 0.96 0.96 95 1019.3
20240620033427 72 83 2.0 7.0 0.16 0.94 0.94 95 1019.4
20240620032342 72 30 1.0 8.0 0.15 0.92 0.92 95 1019.3
20240620031413 72 84 2.0 6.0 0.13 0.89 0.89 95 1019.1
20240620030323 72 46 3.0 9.0 0.10 0.85 0.85 95 1019.1